Time;durP1;ratioP1;P1;durP2;ratioP2;P2;SDS_P1;SDS_P2;PMS_P1;PMS_P2;Temp;Humidity;BMP_temperature;BMP_pressure;BME280_temperature;BME280_humidity;BME280_pressure;Samples;Min_cycle;Max_cycle;Signal;HPM_P1;HPM_P2
2022/07/02 00:02:00;;;;;;;8.73;4.03;;;18.00;99.90;;;;;;5095776;28;20468;-87
2022/07/02 00:04:32;;;;;;;7.05;3.50;;;17.90;99.90;;;;;;5099055;28;20059;-87
2022/07/02 00:06:58;;;;;;;8.65;3.42;;;17.90;99.90;;;;;;5115700;28;20060;-87
2022/07/02 00:09:27;;;;;;;8.23;3.38;;;17.90;99.90;;;;;;5099091;28;20547;-87
2022/07/02 00:11:57;;;;;;;7.95;3.40;;;17.90;99.90;;;;;;5115713;28;20020;-88
2022/07/02 00:14:24;;;;;;;8.27;3.47;;;17.80;99.90;;;;;;5117384;28;20012;-87
2022/07/02 00:16:52;;;;;;;7.03;3.58;;;17.80;99.90;;;;;;5098911;28;20024;-87
2022/07/02 00:19:19;;;;;;;6.20;3.28;;;17.80;99.90;;;;;;5115785;28;20020;-88
2022/07/02 00:21:46;;;;;;;6.25;3.67;;;17.80;99.90;;;;;;5098795;28;20534;-87
2022/07/02 00:24:11;;;;;;;6.32;3.15;;;17.70;99.90;;;;;;5085346;28;20032;-87
2022/07/02 00:26:50;;;;;;;7.43;3.63;;;17.70;99.90;;;;;;5098467;28;20049;-87
2022/07/02 00:29:19;;;;;;;5.65;3.25;;;17.70;99.90;;;;;;5115525;28;20057;-87
2022/07/02 00:31:47;;;;;;;5.28;3.20;;;17.60;99.90;;;;;;5115305;28;20040;-87
2022/07/02 00:34:13;;;;;;;5.45;3.40;;;17.60;99.90;;;;;;5098648;28;20023;-86
2022/07/02 00:36:39;;;;;;;7.95;3.50;;;17.60;99.90;;;;;;5116748;28;20020;-87
2022/07/02 00:39:05;;;;;;;13.98;3.80;;;17.60;99.90;;;;;;5113832;28;20031;-87
2022/07/02 00:41:32;;;;;;;6.75;3.25;;;17.60;99.90;;;;;;5103661;28;20526;-86
2022/07/02 00:43:59;;;;;;;9.52;3.10;;;17.50;99.90;;;;;;5098238;28;20030;-88
2022/07/02 00:46:25;;;;;;;5.97;3.25;;;17.50;99.90;;;;;;5098417;28;20354;-87
2022/07/02 00:49:08;;;;;;;6.32;3.22;;;17.50;99.90;;;;;;5098439;28;20047;-88
2022/07/02 00:51:34;;;;;;;5.97;3.40;;;17.50;99.90;;;;;;5084371;28;20174;-87
2022/07/02 00:54:00;;;;;;;8.82;3.85;;;17.40;99.90;;;;;;5088849;28;20402;-87
2022/07/02 00:56:26;;;;;;;6.40;3.85;;;17.40;99.90;;;;;;5101132;28;20158;-87
2022/07/02 00:58:52;;;;;;;7.35;3.72;;;17.40;99.90;;;;;;5110044;27;20471;-87
2022/07/02 01:04:45;;;;;;;5.95;3.80;;;17.40;99.90;;;;;;5050868;28;20101;-87
2022/07/02 01:07:14;;;;;;;6.75;3.45;;;17.30;99.90;;;;;;5097569;22;20071;-82
2022/07/02 01:12:38;;;;;;;6.47;3.78;;;17.30;99.90;;;;;;5103922;28;20435;-82
2022/07/02 01:15:04;;;;;;;9.98;4.13;;;17.20;99.90;;;;;;5061018;28;20016;-81
2022/07/02 01:17:29;;;;;;;6.38;3.78;;;17.20;99.90;;;;;;5059973;28;20431;-82
2022/07/02 01:19:55;;;;;;;7.05;4.13;;;17.20;99.90;;;;;;5047924;28;20023;-81
2022/07/02 01:22:23;;;;;;;7.25;3.83;;;17.20;99.90;;;;;;5049196;28;20487;-81
2022/07/02 01:24:51;;;;;;;7.68;3.80;;;17.20;99.90;;;;;;5090017;28;20060;-81
2022/07/02 01:27:18;;;;;;;6.43;3.53;;;17.20;99.90;;;;;;5087354;28;20068;-82
2022/07/02 01:29:44;;;;;;;6.45;3.92;;;17.10;99.90;;;;;;5073803;28;20024;-82
2022/07/02 01:33:05;;;;;;;7.95;3.90;;;17.10;99.90;;;;;;5067083;28;20042;-82
2022/07/02 01:35:31;;;;;;;6.30;4.13;;;17.10;99.90;;;;;;5079484;28;20028;-82
2022/07/02 01:44:04;;;;;;;6.50;4.25;;;16.90;99.90;;;;;;5077750;28;20500;-82
2022/07/02 01:46:46;;;;;;;8.25;4.20;;;16.90;99.90;;;;;;5050064;28;20031;-81
2022/07/02 01:49:41;;;;;;;;;;;;;;;;;;;;;
2022/07/02 01:55:42;;;;;;;7.18;4.38;;;16.80;99.90;;;;;;5088262;28;20139;-81
2022/07/02 02:02:12;;;;;;;7.00;4.00;;;16.80;99.90;;;;;;5028982;28;20129;-82
2022/07/02 02:08:31;;;;;;;6.82;3.95;;;16.70;99.90;;;;;;5049171;28;20131;-81
2022/07/02 02:10:57;;;;;;;5.40;4.20;;;16.70;99.90;;;;;;5063313;28;20028;-81
2022/07/02 02:13:23;;;;;;;8.23;4.30;;;16.70;99.90;;;;;;5039258;28;20021;-81
2022/07/02 02:15:49;;;;;;;5.20;3.78;;;16.60;99.90;;;;;;5052166;28;20397;-82
2022/07/02 02:18:14;;;;;;;5.43;4.07;;;16.60;99.90;;;;;;5060471;28;20033;-81
2022/07/02 02:20:40;;;;;;;7.60;4.35;;;16.60;99.90;;;;;;5083064;28;20103;-81
2022/07/02 02:23:06;;;;;;;10.38;3.72;;;16.60;99.90;;;;;;5051632;28;20111;-81
2022/07/02 02:25:32;;;;;;;7.22;3.95;;;16.60;99.90;;;;;;5060507;28;20063;-81
2022/07/02 02:28:04;;;;;;;6.38;4.10;;;16.60;99.90;;;;;;5057929;28;20028;-81
2022/07/02 02:30:30;;;;;;;6.80;4.03;;;16.50;99.90;;;;;;5046671;28;20017;-81
2022/07/02 02:32:55;;;;;;;7.13;4.00;;;16.50;99.90;;;;;;5044438;28;20510;-81
2022/07/02 02:35:21;;;;;;;7.80;4.70;;;16.50;99.90;;;;;;5057042;28;20021;-81
2022/07/02 02:37:47;;;;;;;6.35;4.43;;;16.50;99.90;;;;;;5033243;28;20386;-81
2022/07/02 02:40:12;;;;;;;6.28;4.22;;;16.40;99.90;;;;;;5060225;28;20517;-81
2022/07/02 02:42:38;;;;;;;5.03;3.60;;;16.40;99.90;;;;;;5055693;28;20037;-81
2022/07/02 02:45:04;;;;;;;7.00;4.15;;;16.40;99.90;;;;;;5037842;28;20028;-81
2022/07/02 02:47:29;;;;;;;7.28;4.13;;;16.40;99.90;;;;;;5055324;28;20032;-82
2022/07/02 02:49:55;;;;;;;9.07;4.35;;;16.30;99.90;;;;;;5021537;28;20383;-81
2022/07/02 02:52:21;;;;;;;8.23;3.90;;;16.30;99.90;;;;;;5054462;28;20378;-82
2022/07/02 02:54:46;;;;;;;8.15;4.20;;;16.30;99.90;;;;;;5060700;28;20040;-81
2022/07/02 02:57:13;;;;;;;7.88;4.25;;;16.30;99.90;;;;;;5057774;28;20096;-81
2022/07/02 02:59:38;;;;;;;5.65;4.10;;;16.20;99.90;;;;;;5055311;28;20028;-81
2022/07/02 03:02:04;;;;;;;6.93;4.28;;;16.20;99.90;;;;;;5052839;28;20027;-82
2022/07/02 03:04:30;;;;;;;6.90;4.40;;;16.20;99.90;;;;;;5060106;28;20029;-81
2022/07/02 03:06:55;;;;;;;6.30;4.03;;;16.20;99.90;;;;;;5071598;28;20032;-81
2022/07/02 03:09:21;;;;;;;5.53;4.03;;;16.20;99.90;;;;;;5080183;28;20074;-81
2022/07/02 03:12:06;;;;;;;7.85;3.78;;;16.20;99.90;;;;;;5075091;28;20024;-82
2022/07/02 03:14:31;;;;;;;6.82;4.50;;;16.10;99.90;;;;;;5053048;28;20079;-81
2022/07/02 03:16:57;;;;;;;8.00;5.00;;;16.10;99.90;;;;;;5076362;28;20032;-82
2022/07/02 03:19:22;;;;;;;6.47;4.25;;;16.10;99.90;;;;;;5091859;28;20024;-82
2022/07/02 03:21:48;;;;;;;8.95;5.22;;;16.10;99.90;;;;;;5063859;28;20037;-81
2022/07/02 03:24:15;;;;;;;6.82;4.18;;;16.00;99.90;;;;;;5058964;28;20028;-81
2022/07/02 03:26:41;;;;;;;6.47;3.97;;;16.00;99.90;;;;;;5075481;28;20422;-81
2022/07/02 03:29:06;;;;;;;8.32;4.50;;;16.00;99.90;;;;;;5089863;28;20107;-82
2022/07/02 03:31:33;;;;;;;6.95;4.47;;;16.00;99.90;;;;;;5078722;28;20111;-81
2022/07/02 03:33:58;;;;;;;6.97;4.55;;;15.90;99.90;;;;;;5062999;28;20029;-81
2022/07/02 03:36:24;;;;;;;9.18;4.90;;;15.90;99.90;;;;;;5056945;28;20024;-81
2022/07/02 03:38:50;;;;;;;7.13;4.53;;;15.90;99.90;;;;;;5085608;28;20032;-81
2022/07/02 03:41:16;;;;;;;8.35;4.50;;;15.90;99.90;;;;;;5076887;28;20029;-82
2022/07/02 03:43:45;;;;;;;9.13;4.97;;;15.90;99.90;;;;;;5075180;28;20029;-82
2022/07/02 03:46:12;;;;;;;8.07;4.50;;;15.90;99.90;;;;;;5075264;28;20078;-81
2022/07/02 03:48:38;;;;;;;6.15;4.60;;;15.90;99.90;;;;;;5048039;28;20028;-81
2022/07/02 03:51:04;;;;;;;6.38;4.57;;;15.90;99.90;;;;;;5095109;28;20030;-81
2022/07/02 03:53:29;;;;;;;8.27;5.22;;;15.90;99.90;;;;;;5056600;28;20025;-81
2022/07/02 03:55:55;;;;;;;9.20;4.70;;;15.90;99.90;;;;;;5066035;28;20036;-82
2022/07/02 03:58:21;;;;;;;8.25;4.88;;;15.90;99.90;;;;;;5077938;28;20033;-82
2022/07/02 04:00:47;;;;;;;8.13;5.30;;;16.00;99.90;;;;;;5095031;28;20043;-81
2022/07/02 04:03:12;;;;;;;9.13;5.22;;;15.90;99.90;;;;;;5094947;28;20022;-82
2022/07/02 04:05:38;;;;;;;8.07;4.82;;;15.90;99.90;;;;;;5043976;28;20056;-82
2022/07/02 04:08:04;;;;;;;10.02;5.10;;;15.90;99.90;;;;;;5056441;28;20032;-81
2022/07/02 04:10:29;;;;;;;10.50;4.75;;;15.90;99.90;;;;;;5083217;28;20059;-81
2022/07/02 04:12:55;;;;;;;7.78;5.00;;;15.90;99.90;;;;;;5042667;28;20054;-81
2022/07/02 04:15:21;;;;;;;7.22;4.95;;;15.90;99.90;;;;;;5089875;28;20096;-81
2022/07/02 04:17:46;;;;;;;6.93;4.90;;;15.90;99.90;;;;;;5079183;28;20530;-81
2022/07/02 04:20:12;;;;;;;8.00;4.60;;;15.90;99.90;;;;;;5074678;28;20051;-81
2022/07/02 04:23:30;;;;;;;6.97;4.90;;;15.90;99.90;;;;;;5088985;28;20036;-81
2022/07/02 04:25:56;;;;;;;7.82;5.18;;;16.00;99.90;;;;;;5067952;28;20356;-81
2022/07/02 04:28:23;;;;;;;7.18;4.63;;;16.00;99.90;;;;;;5045687;28;20040;-81
2022/07/02 04:30:49;;;;;;;6.45;5.20;;;15.90;99.90;;;;;;5081372;28;20032;-81
2022/07/02 04:33:33;;;;;;;8.82;5.43;;;15.90;99.90;;;;;;5052854;28;20033;-82
2022/07/02 04:35:59;;;;;;;9.77;5.85;;;15.90;99.90;;;;;;5059410;28;20026;-81
2022/07/02 04:38:24;;;;;;;8.00;4.35;;;16.00;99.90;;;;;;5047523;28;20453;-81
2022/07/02 04:40:50;;;;;;;6.45;4.95;;;16.00;99.90;;;;;;5037784;28;20444;-82
2022/07/02 04:43:15;;;;;;;6.43;4.53;;;16.00;99.90;;;;;;5045481;28;20382;-81
2022/07/02 04:45:41;;;;;;;10.30;5.53;;;16.00;99.90;;;;;;5089030;28;20032;-81
2022/07/02 04:48:07;;;;;;;10.15;5.57;;;16.00;99.90;;;;;;5053961;28;20478;-81
2022/07/02 04:50:33;;;;;;;6.95;4.35;;;16.00;99.90;;;;;;5068872;28;20031;-81
2022/07/02 04:52:59;;;;;;;8.70;5.32;;;16.10;99.90;;;;;;5079678;28;20016;-81
2022/07/02 04:55:25;;;;;;;9.32;4.70;;;16.00;99.90;;;;;;5084087;28;20019;-81
2022/07/02 04:57:51;;;;;;;9.52;4.57;;;16.00;99.90;;;;;;5057586;28;20335;-81
2022/07/02 05:00:17;;;;;;;7.90;3.90;;;16.00;99.90;;;;;;5040373;28;20021;-81
2022/07/02 05:02:42;;;;;;;6.70;3.70;;;16.10;99.90;;;;;;5087056;28;20028;-81
2022/07/02 05:05:08;;;;;;;7.03;3.35;;;16.00;99.90;;;;;;5093561;28;20020;-81
2022/07/02 05:07:34;;;;;;;6.43;3.58;;;16.00;99.90;;;;;;5082414;28;20103;-81
2022/07/02 05:10:00;;;;;;;7.38;3.97;;;16.00;99.90;;;;;;5073194;28;20040;-81
2022/07/02 05:12:26;;;;;;;6.68;3.22;;;16.00;99.90;;;;;;5082895;28;20050;-81
2022/07/02 05:14:51;;;;;;;7.68;3.78;;;16.00;99.90;;;;;;5059423;28;20048;-81
2022/07/02 05:17:17;;;;;;;6.30;3.40;;;16.00;99.90;;;;;;5063950;28;20020;-81
2022/07/02 05:19:44;;;;;;;7.43;3.72;;;16.00;99.90;;;;;;5094707;28;20028;-81
2022/07/02 05:22:12;;;;;;;7.70;3.45;;;16.10;99.90;;;;;;5067710;28;20111;-82
2022/07/02 05:24:37;;;;;;;5.95;3.92;;;16.10;99.90;;;;;;5076585;28;20618;-81
2022/07/02 05:27:03;;;;;;;7.35;3.42;;;16.10;99.90;;;;;;5075451;28;20107;-81
2022/07/02 05:29:29;;;;;;;8.23;3.78;;;16.10;99.90;;;;;;5052984;28;20475;-81
2022/07/02 05:31:55;;;;;;;6.28;3.50;;;16.10;99.90;;;;;;5049344;28;20042;-81
2022/07/02 05:34:20;;;;;;;6.93;3.35;;;16.10;99.90;;;;;;5056499;28;20477;-81
2022/07/02 05:36:47;;;;;;;8.80;3.42;;;16.20;99.90;;;;;;5085680;28;20546;-81
2022/07/02 05:39:13;;;;;;;6.75;3.28;;;16.20;99.90;;;;;;5074023;28;20394;-81
2022/07/02 05:41:39;;;;;;;7.57;3.83;;;16.20;99.90;;;;;;5072863;28;20025;-81
2022/07/02 05:44:04;;;;;;;6.55;3.22;;;16.20;99.90;;;;;;5055061;28;20446;-81
2022/07/02 05:46:30;;;;;;;6.57;2.90;;;16.30;99.90;;;;;;5081597;28;20089;-81
2022/07/02 05:48:56;;;;;;;6.00;2.30;;;16.30;99.90;;;;;;5057725;28;20067;-81
2022/07/02 05:51:21;;;;;;;4.28;2.80;;;16.40;99.90;;;;;;5040123;28;20463;-81
2022/07/02 05:53:47;;;;;;;8.85;3.30;;;16.50;99.90;;;;;;5073340;28;20028;-81
2022/07/02 05:56:13;;;;;;;6.25;2.70;;;16.50;99.90;;;;;;5051044;28;20348;-82
2022/07/02 05:58:39;;;;;;;5.68;2.30;;;16.60;99.90;;;;;;5029492;28;20029;-81
2022/07/02 06:01:05;;;;;;;7.57;2.30;;;16.70;99.90;;;;;;5058517;28;20025;-81
2022/07/02 06:03:30;;;;;;;4.10;1.90;;;16.70;99.90;;;;;;5075289;28;20032;-82
2022/07/02 06:08:41;;;;;;;3.92;1.77;;;16.80;99.90;;;;;;5076493;28;20097;-81
2022/07/02 06:11:06;;;;;;;2.17;1.20;;;16.90;99.90;;;;;;5092595;28;20094;-82
2022/07/02 06:13:33;;;;;;;4.93;1.67;;;16.90;99.90;;;;;;5059130;28;20356;-82
2022/07/02 06:15:59;;;;;;;3.63;1.38;;;17.00;99.90;;;;;;5052478;28;20024;-81
2022/07/02 06:18:27;;;;;;;4.43;1.77;;;17.00;99.90;;;;;;5075365;28;20028;-81
2022/07/02 06:20:53;;;;;;;4.57;1.33;;;17.10;99.90;;;;;;5059286;28;20119;-82
2022/07/02 06:23:21;;;;;;;3.63;1.40;;;17.20;99.90;;;;;;5075575;28;20104;-82
2022/07/02 06:25:50;;;;;;;3.40;1.40;;;17.20;99.90;;;;;;5056863;28;20066;-82
2022/07/02 06:28:16;;;;;;;4.20;1.40;;;17.30;99.90;;;;;;5075480;28;20047;-81
2022/07/02 06:30:42;;;;;;;2.80;1.40;;;17.30;99.90;;;;;;5084497;28;20042;-82
2022/07/02 06:33:08;;;;;;;6.07;1.30;;;17.40;99.90;;;;;;5091629;28;20089;-82
2022/07/02 06:35:36;;;;;;;5.30;1.50;;;17.40;99.90;;;;;;5038605;28;20025;-81
2022/07/02 06:38:02;;;;;;;2.38;1.20;;;17.50;99.90;;;;;;5075295;28;20024;-81
2022/07/02 06:40:28;;;;;;;3.45;1.30;;;17.50;99.90;;;;;;5067004;28;20039;-81
2022/07/02 06:42:55;;;;;;;3.90;1.20;;;17.60;99.40;;;;;;5056178;28;20039;-81
2022/07/02 06:45:21;;;;;;;4.10;1.20;;;17.60;99.30;;;;;;5078827;28;20061;-81
2022/07/02 06:47:48;;;;;;;3.95;0.90;;;17.70;99.30;;;;;;5066309;28;20085;-81
2022/07/02 06:50:16;;;;;;;4.80;1.95;;;17.70;99.10;;;;;;5069859;28;20052;-81
2022/07/02 06:52:44;;;;;;;7.05;1.20;;;17.80;98.80;;;;;;5081598;28;20028;-82
2022/07/02 06:55:10;;;;;;;5.15;2.10;;;17.80;98.80;;;;;;5061128;28;20036;-82
2022/07/02 06:57:36;;;;;;;4.60;1.40;;;17.90;98.60;;;;;;5089211;28;20032;-82
2022/07/02 07:00:02;;;;;;;3.38;1.30;;;17.90;98.20;;;;;;5060083;28;20027;-82
2022/07/02 07:02:28;;;;;;;3.33;1.30;;;18.00;98.30;;;;;;5058933;28;20496;-82
2022/07/02 07:04:53;;;;;;;4.75;1.10;;;18.00;97.70;;;;;;5053485;28;20115;-82
2022/07/02 07:07:21;;;;;;;5.47;2.00;;;18.10;97.30;;;;;;5079620;28;20088;-82
2022/07/02 07:09:46;;;;;;;4.45;1.00;;;18.20;96.30;;;;;;5058870;28;20045;-82
2022/07/02 07:12:13;;;;;;;2.80;0.90;;;18.20;96.30;;;;;;5063394;28;20389;-82
2022/07/02 07:14:39;;;;;;;3.78;0.88;;;18.30;96.30;;;;;;5057054;28;20474;-82
2022/07/02 07:17:04;;;;;;;2.13;0.85;;;18.40;96.10;;;;;;5056428;28;20036;-82
2022/07/02 07:19:30;;;;;;;1.90;0.93;;;18.40;95.70;;;;;;5078663;28;20041;-82
2022/07/02 07:21:56;;;;;;;2.83;0.93;;;18.50;95.40;;;;;;5062884;28;20039;-82
2022/07/02 07:24:22;;;;;;;3.03;0.93;;;18.60;95.50;;;;;;5072470;28;20029;-81
2022/07/02 07:26:48;;;;;;;1.65;0.70;;;18.60;95.60;;;;;;5056877;28;20032;-82
2022/07/02 07:29:13;;;;;;;0.85;0.57;;;18.70;95.40;;;;;;5060697;28;20020;-82
2022/07/02 07:31:41;;;;;;;3.30;0.80;;;18.70;95.20;;;;;;5078696;28;20424;-81
2022/07/02 07:34:07;;;;;;;3.45;1.00;;;18.80;95.30;;;;;;5076570;28;20047;-81
2022/07/02 07:36:34;;;;;;;2.20;0.70;;;18.90;95.60;;;;;;5071865;28;20048;-82
2022/07/02 07:39:01;;;;;;;1.45;0.80;;;19.00;95.50;;;;;;5054690;28;20036;-82
2022/07/02 07:41:27;;;;;;;3.33;1.10;;;19.00;95.30;;;;;;5045518;28;20451;-81
2022/07/02 07:43:53;;;;;;;3.50;1.10;;;19.10;95.50;;;;;;5072584;28;20051;-83
2022/07/02 07:46:20;;;;;;;2.67;0.70;;;19.20;95.50;;;;;;5067134;28;20035;-82
2022/07/02 07:48:46;;;;;;;4.10;0.80;;;19.20;95.50;;;;;;5052847;28;20396;-82
2022/07/02 07:51:12;;;;;;;2.72;0.80;;;19.30;95.30;;;;;;5092380;28;20031;-81
2022/07/02 07:53:38;;;;;;;3.75;1.00;;;19.40;94.70;;;;;;5065132;28;20422;-81
2022/07/02 07:56:04;;;;;;;4.47;1.13;;;19.50;94.40;;;;;;5081597;28;20030;-82
2022/07/02 07:58:30;;;;;;;1.83;0.68;;;19.60;94.60;;;;;;5079118;28;20070;-82
2022/07/02 08:00:56;;;;;;;3.90;0.98;;;19.60;94.40;;;;;;5086490;28;20028;-83
2022/07/02 08:03:22;;;;;;;4.63;1.20;;;19.70;94.30;;;;;;5078331;28;20024;-82
2022/07/02 08:05:53;;;;;;;1.63;0.75;;;19.80;94.40;;;;;;5067309;28;20035;-82
2022/07/02 08:08:19;;;;;;;3.17;1.50;;;19.80;94.20;;;;;;5079654;28;20036;-83
2022/07/02 08:10:45;;;;;;;2.00;0.80;;;19.90;93.70;;;;;;5058849;28;20025;-83
2022/07/02 08:13:10;;;;;;;3.15;1.25;;;20.00;92.90;;;;;;5092096;28;20031;-84
2022/07/02 08:15:36;;;;;;;2.92;0.93;;;20.00;93.10;;;;;;5064192;28;20020;-82
2022/07/02 08:18:02;;;;;;;3.85;1.10;;;20.10;93.30;;;;;;5086071;28;20019;-82
2022/07/02 08:20:28;;;;;;;2.25;0.70;;;20.20;93.10;;;;;;5064964;28;20380;-81
2022/07/02 08:22:53;;;;;;;3.67;1.10;;;20.20;92.30;;;;;;5081985;28;20078;-82
2022/07/02 08:25:19;;;;;;;3.72;0.80;;;20.20;91.50;;;;;;5060975;28;20427;-81
2022/07/02 08:27:45;;;;;;;3.50;0.90;;;20.30;91.10;;;;;;5054907;28;20129;-81
2022/07/02 08:30:12;;;;;;;5.07;1.05;;;20.30;90.90;;;;;;5067798;28;20089;-82
2022/07/02 08:32:39;;;;;;;2.70;0.82;;;20.40;90.80;;;;;;5078757;28;20081;-82
2022/07/02 08:35:05;;;;;;;5.00;1.02;;;20.50;90.80;;;;;;5083138;28;20016;-82
2022/07/02 08:37:32;;;;;;;4.45;0.80;;;20.50;90.40;;;;;;5082916;28;20034;-82
2022/07/02 08:39:58;;;;;;;2.13;0.88;;;20.60;90.70;;;;;;5058087;28;20382;-82
2022/07/02 08:42:29;;;;;;;5.18;1.60;;;20.70;91.10;;;;;;5077844;28;20462;-82
2022/07/02 08:45:00;;;;;;;4.00;1.30;;;20.70;91.20;;;;;;5110009;28;20077;-82
2022/07/02 08:47:27;;;;;;;6.05;1.27;;;20.80;90.90;;;;;;5078785;28;20061;-82
2022/07/02 08:49:54;;;;;;;3.30;1.00;;;20.80;90.50;;;;;;5095167;28;20045;-82
2022/07/02 08:52:25;;;;;;;4.22;1.50;;;20.90;90.30;;;;;;5057217;28;20078;-82
2022/07/02 08:54:52;;;;;;;4.25;0.95;;;20.90;90.20;;;;;;5095372;28;20026;-82
2022/07/02 08:57:19;;;;;;;2.20;0.98;;;21.00;90.30;;;;;;5089245;28;20032;-82
2022/07/02 08:59:45;;;;;;;3.47;0.85;;;21.00;90.30;;;;;;5062251;28;20366;-82
2022/07/02 09:02:15;;;;;;;2.55;0.88;;;21.00;89.70;;;;;;5078366;28;20059;-82
2022/07/02 09:04:46;;;;;;;5.18;1.58;;;21.10;89.00;;;;;;5089818;28;20027;-82
2022/07/02 09:07:14;;;;;;;3.92;0.80;;;21.10;88.70;;;;;;5094711;28;20118;-82
2022/07/02 09:09:42;;;;;;;2.47;0.77;;;21.10;88.30;;;;;;5096597;28;20044;-83
2022/07/02 09:12:16;;;;;;;4.65;0.88;;;21.20;88.00;;;;;;5080014;28;20031;-81
2022/07/02 09:15:01;;;;;;;3.85;1.00;;;21.20;87.20;;;;;;5076652;28;20389;-83
2022/07/02 09:17:27;;;;;;;2.85;0.75;;;21.30;87.60;;;;;;5069627;28;20462;-80
2022/07/02 09:19:53;;;;;;;1.90;0.70;;;21.30;87.60;;;;;;5074258;28;20035;-80
2022/07/02 09:22:18;;;;;;;5.68;1.33;;;21.40;88.30;;;;;;5099678;28;20507;-80
2022/07/02 09:24:44;;;;;;;3.08;0.98;;;21.40;88.80;;;;;;5055641;28;20115;-81
2022/07/02 09:27:12;;;;;;;4.93;0.90;;;21.50;89.80;;;;;;5078520;28;20111;-80
2022/07/02 09:29:45;;;;;;;2.97;0.85;;;21.60;88.40;;;;;;5089978;28;20412;-81
2022/07/02 09:32:13;;;;;;;3.45;0.90;;;21.60;87.30;;;;;;5077120;28;20047;-82
2022/07/02 09:34:56;;;;;;;3.53;1.08;;;21.70;85.30;;;;;;5069798;28;20045;-81
2022/07/02 09:37:24;;;;;;;3.90;0.95;;;21.70;86.00;;;;;;5080040;28;20027;-81
2022/07/02 09:39:51;;;;;;;2.42;0.90;;;21.70;85.60;;;;;;5078241;28;20035;-82
2022/07/02 09:42:32;;;;;;;4.18;1.35;;;21.80;85.20;;;;;;5065874;28;20476;-81
2022/07/02 09:45:00;;;;;;;4.00;1.00;;;21.80;84.50;;;;;;5065368;28;20024;-82
2022/07/02 09:47:31;;;;;;;3.17;1.10;;;21.90;85.30;;;;;;5078720;28;20020;-81
2022/07/02 09:49:56;;;;;;;4.55;1.00;;;21.90;84.40;;;;;;5081751;28;20024;-82
2022/07/02 09:52:22;;;;;;;3.90;1.27;;;21.90;84.10;;;;;;5077027;28;20026;-82
2022/07/02 09:54:48;;;;;;;4.35;1.15;;;22.00;84.10;;;;;;5112922;28;20020;-82
2022/07/02 09:57:13;;;;;;;3.08;1.20;;;22.00;82.90;;;;;;5080669;28;20048;-82
2022/07/02 10:00:35;;;;;;;2.78;1.02;;;22.10;83.40;;;;;;5079130;28;20101;-82
2022/07/02 10:03:01;;;;;;;2.60;0.93;;;22.10;84.60;;;;;;5096160;28;20024;-82
2022/07/02 10:05:31;;;;;;;3.53;0.90;;;22.20;82.50;;;;;;5065006;28;20034;-82
2022/07/02 10:07:59;;;;;;;5.25;1.40;;;22.30;83.20;;;;;;5076940;28;20500;-81
2022/07/02 10:10:38;;;;;;;4.82;1.55;;;22.30;82.70;;;;;;5068560;28;20035;-82
2022/07/02 10:13:08;;;;;;;4.72;1.35;;;22.30;80.90;;;;;;5095765;28;20020;-81
2022/07/02 10:15:39;;;;;;;4.30;1.30;;;22.40;81.20;;;;;;5076695;28;20023;-82
2022/07/02 10:18:06;;;;;;;5.25;1.15;;;22.40;82.00;;;;;;5076068;28;20024;-82
2022/07/02 10:20:34;;;;;;;4.38;1.13;;;22.50;82.10;;;;;;5089456;28;20024;-83
2022/07/02 10:23:05;;;;;;;4.72;0.93;;;22.50;81.40;;;;;;5088444;28;20034;-82
2022/07/02 10:25:32;;;;;;;3.63;1.17;;;22.60;81.20;;;;;;5090034;28;20017;-82
2022/07/02 10:27:58;;;;;;;1.85;0.90;;;22.60;81.20;;;;;;5042263;28;20132;-82
2022/07/02 10:30:28;;;;;;;4.68;1.33;;;22.70;82.20;;;;;;5079188;28;20064;-82
2022/07/02 10:33:01;;;;;;;2.13;0.93;;;22.70;82.70;;;;;;5085021;28;20016;-82
2022/07/02 10:35:27;;;;;;;2.97;1.02;;;22.80;82.40;;;;;;5075268;28;20016;-83
2022/07/02 10:37:57;;;;;;;3.17;1.00;;;22.90;80.00;;;;;;5075555;28;20028;-82
2022/07/02 10:40:23;;;;;;;5.32;1.05;;;22.90;79.80;;;;;;5060238;28;20170;-82
2022/07/02 10:42:50;;;;;;;4.80;1.00;;;23.00;79.30;;;;;;5087841;28;20062;-82
2022/07/02 10:45:23;;;;;;;4.20;1.02;;;23.00;79.30;;;;;;5042166;28;20028;-82
2022/07/02 10:48:00;;;;;;;2.10;0.98;;;23.00;78.70;;;;;;5051970;28;20118;-82
2022/07/02 10:50:47;;;;;;;2.25;0.80;;;23.10;78.20;;;;;;5078758;28;20112;-82
2022/07/02 10:53:13;;;;;;;4.45;0.88;;;23.10;77.80;;;;;;5099442;28;20106;-82
2022/07/02 10:55:41;;;;;;;6.15;1.77;;;23.20;77.00;;;;;;5098930;28;20078;-82
2022/07/02 10:58:16;;;;;;;4.30;1.27;;;23.20;75.20;;;;;;5092721;28;20028;-83
2022/07/02 11:00:42;;;;;;;6.22;0.82;;;23.20;75.20;;;;;;5093207;28;20537;-82
2022/07/02 11:03:23;;;;;;;3.28;1.00;;;23.30;75.10;;;;;;5071603;28;20067;-82
2022/07/02 11:06:20;;;;;;;5.30;1.40;;;23.30;75.00;;;;;;5074960;28;20086;-82
2022/07/02 11:08:51;;;;;;;2.97;0.65;;;23.30;74.50;;;;;;5063435;28;20390;-81
2022/07/02 11:11:40;;;;;;;;;;;23.30;74.10;;;;;;5057081;28;20051;-81
2022/07/02 11:14:10;;;;;;;2.17;0.80;;;23.30;73.60;;;;;;5087299;28;19911;-81
2022/07/02 11:16:48;;;;;;;2.30;0.73;;;23.30;73.20;;;;;;5076082;28;20023;-82
2022/07/02 11:19:18;;;;;;;3.75;0.93;;;23.30;73.10;;;;;;5080622;28;20082;-82
2022/07/02 11:21:46;;;;;;;1.77;0.63;;;23.30;72.90;;;;;;5106511;28;20084;-82
2022/07/02 11:24:14;;;;;;;2.63;0.77;;;23.30;73.30;;;;;;5093707;28;20111;-82
2022/07/02 11:26:42;;;;;;;3.33;1.02;;;23.30;73.80;;;;;;5089668;28;20056;-82
2022/07/02 11:29:07;;;;;;;5.35;1.58;;;23.30;73.50;;;;;;5055227;28;20382;-81
2022/07/02 11:31:42;;;;;;;3.72;1.20;;;23.40;73.80;;;;;;5059234;28;20056;-81
2022/07/02 11:34:08;;;;;;;13.15;1.23;;;23.40;72.00;;;;;;5079495;28;20019;-82
2022/07/02 11:36:38;;;;;;;4.45;1.08;;;23.40;71.70;;;;;;5095061;28;20015;-82
2022/07/02 11:39:09;;;;;;;3.58;1.17;;;23.40;72.70;;;;;;5105512;28;20051;-81
2022/07/02 11:41:36;;;;;;;4.82;1.60;;;23.50;72.10;;;;;;5081329;28;20024;-81
2022/07/02 11:44:15;;;;;;;4.10;1.27;;;23.50;72.20;;;;;;5071972;28;20036;-82
2022/07/02 11:46:45;;;;;;;5.97;1.30;;;23.50;72.40;;;;;;5100844;28;20389;-81
2022/07/02 11:49:15;;;;;;;3.53;1.05;;;23.60;72.80;;;;;;5103936;28;20188;-85
2022/07/02 11:51:41;;;;;;;3.90;1.08;;;23.70;72.00;;;;;;5095197;28;20038;-82
2022/07/02 11:54:07;;;;;;;6.68;1.20;;;23.70;71.00;;;;;;5061399;28;20020;-82
2022/07/02 11:56:38;;;;;;;3.40;1.15;;;23.70;70.20;;;;;;5062827;28;20385;-82
2022/07/02 11:59:04;;;;;;;;;;;23.70;69.90;;;;;;5079028;28;20174;-82
2022/07/02 12:01:32;;;;;;;1.50;0.80;;;23.70;70.70;;;;;;5078196;28;19935;-82
2022/07/02 12:04:03;;;;;;;4.00;1.10;;;23.60;71.30;;;;;;5078145;28;20445;-82
2022/07/02 12:06:34;;;;;;;2.42;1.00;;;23.70;70.20;;;;;;5078091;28;20055;-82
2022/07/02 12:09:02;;;;;;;2.40;1.08;;;23.70;69.50;;;;;;5090673;28;20520;-84
2022/07/02 12:11:28;;;;;;;4.28;1.40;;;23.70;68.40;;;;;;5078353;28;20040;-84
2022/07/02 12:13:55;;;;;;;3.55;1.10;;;23.70;69.50;;;;;;5097353;28;20024;-84
2022/07/02 12:16:26;;;;;;;50.42;4.43;;;23.70;70.90;;;;;;5062427;28;20024;-84
2022/07/02 12:19:01;;;;;;;5.60;1.10;;;23.70;71.70;;;;;;5064205;28;20055;-85
2022/07/02 12:21:44;;;;;;;4.10;1.00;;;23.80;72.20;;;;;;5082428;28;20080;-82
2022/07/02 12:24:30;;;;;;;4.55;0.88;;;23.80;70.60;;;;;;5089096;28;20119;-83
2022/07/02 12:27:07;;;;;;;3.50;1.00;;;23.90;70.10;;;;;;5104007;28;20051;-82
2022/07/02 12:29:53;;;;;;;3.83;1.00;;;24.00;70.70;;;;;;5100599;28;20520;-84
2022/07/02 12:32:23;;;;;;;2.97;1.05;;;24.00;70.00;;;;;;5061312;28;20020;-84
2022/07/02 12:34:54;;;;;;;4.03;0.90;;;24.10;70.70;;;;;;5106375;28;20389;-85
2022/07/02 12:37:32;;;;;;;3.17;1.00;;;24.10;69.30;;;;;;5105195;28;20019;-84
2022/07/02 12:40:04;;;;;;;2.80;0.65;;;24.20;67.40;;;;;;5100205;28;20035;-82
2022/07/02 12:42:34;;;;;;;3.90;0.90;;;24.10;68.40;;;;;;5095416;28;20099;-82
2022/07/02 12:45:05;;;;;;;2.20;0.75;;;24.20;68.70;;;;;;5041760;28;20047;-82
2022/07/02 12:47:34;;;;;;;3.05;0.90;;;24.20;68.70;;;;;;5094194;28;20020;-82
2022/07/02 12:50:30;;;;;;;2.03;0.60;;;24.20;69.30;;;;;;5094221;28;20031;-82
2022/07/02 12:53:02;;;;;;;4.55;0.93;;;24.30;70.20;;;;;;5072463;28;20115;-83
2022/07/02 12:55:38;;;;;;;3.75;0.80;;;24.30;69.10;;;;;;5097438;28;20027;-83
2022/07/02 12:58:16;;;;;;;2.75;0.82;;;24.30;68.40;;;;;;5097610;28;20465;-83
2022/07/02 13:00:43;;;;;;;3.80;0.82;;;24.40;66.30;;;;;;5111693;28;20066;-84
2022/07/02 13:03:10;;;;;;;2.67;0.73;;;24.40;67.00;;;;;;5077266;28;20036;-84
2022/07/02 13:05:41;;;;;;;3.72;1.13;;;24.50;67.00;;;;;;5079565;28;20063;-85
2022/07/02 13:08:06;;;;;;;;;;;24.60;66.80;;;;;;5088657;28;20500;-84
2022/07/02 13:10:32;;;;;;;3.17;0.90;;;24.60;67.60;;;;;;5073131;28;19938;-83
2022/07/02 13:12:58;;;;;;;3.45;1.27;;;24.60;67.00;;;;;;5073492;28;20044;-83
2022/07/02 13:15:24;;;;;;;2.17;0.55;;;24.60;65.90;;;;;;5073365;28;20063;-83
2022/07/02 13:17:50;;;;;;;2.78;1.05;;;24.60;66.60;;;;;;5040097;28;20052;-83
2022/07/02 13:22:54;;;;;;;3.20;0.93;;;24.80;67.90;;;;;;3341146;26;20076;-84
2022/07/02 13:25:21;;;;;;;2.63;0.77;;;24.80;66.80;;;;;;5077222;28;20089;-83